sensor_id;sensor_type;location;lat;lon;timestamp;pressure;altitude;pressure_sealevel;temperature;humidity
64841;BME280;51307;52.162;7.560;2023-03-14T00:02:06;98475.28;;;12.94;54.49
64841;BME280;51307;52.162;7.560;2023-03-14T00:04:32;98478.06;;;12.88;55.01
64841;BME280;51307;52.162;7.560;2023-03-14T00:07:00;98478.91;;;13.00;54.38
64841;BME280;51307;52.162;7.560;2023-03-14T00:09:25;98477.59;;;12.91;54.78
64841;BME280;51307;52.162;7.560;2023-03-14T00:11:52;98456.47;;;12.71;54.81
64841;BME280;51307;52.162;7.560;2023-03-14T00:14:18;98457.28;;;12.83;54.79
64841;BME280;51307;52.162;7.560;2023-03-14T00:16:46;98439.31;;;12.84;54.86
64841;BME280;51307;52.162;7.560;2023-03-14T00:19:12;98426.16;;;12.70;54.98
64841;BME280;51307;52.162;7.560;2023-03-14T00:21:37;98419.69;;;12.59;55.03
64841;BME280;51307;52.162;7.560;2023-03-14T00:24:03;98418.91;;;12.83;54.73
64841;BME280;51307;52.162;7.560;2023-03-14T00:26:29;98433.69;;;12.61;54.90
64841;BME280;51307;52.162;7.560;2023-03-14T00:28:55;98445.97;;;12.69;54.72
64841;BME280;51307;52.162;7.560;2023-03-14T00:31:21;98434.19;;;12.70;54.44
64841;BME280;51307;52.162;7.560;2023-03-14T00:33:47;98434.72;;;12.49;55.13
64841;BME280;51307;52.162;7.560;2023-03-14T00:36:17;98439.66;;;12.52;54.68
64841;BME280;51307;52.162;7.560;2023-03-14T00:38:44;98436.38;;;12.61;54.65
64841;BME280;51307;52.162;7.560;2023-03-14T00:41:13;98394.94;;;12.34;55.31
64841;BME280;51307;52.162;7.560;2023-03-14T00:43:45;98376.78;;;12.48;54.82
64841;BME280;51307;52.162;7.560;2023-03-14T00:46:12;98365.47;;;12.45;54.83
64841;BME280;51307;52.162;7.560;2023-03-14T00:48:40;98346.81;;;12.51;54.80
64841;BME280;51307;52.162;7.560;2023-03-14T00:51:08;98337.81;;;12.33;55.02
64841;BME280;51307;52.162;7.560;2023-03-14T00:53:38;98337.22;;;12.31;55.14
64841;BME280;51307;52.162;7.560;2023-03-14T00:56:08;98337.34;;;12.36;55.08
64841;BME280;51307;52.162;7.560;2023-03-14T00:58:34;98356.47;;;12.28;55.02
64841;BME280;51307;52.162;7.560;2023-03-14T01:01:05;98373.84;;;12.37;54.83
64841;BME280;51307;52.162;7.560;2023-03-14T01:03:31;98379.28;;;12.19;55.17
64841;BME280;51307;52.162;7.560;2023-03-14T01:06:06;98382.78;;;12.07;55.30
64841;BME280;51307;52.162;7.560;2023-03-14T01:08:35;98388.03;;;12.14;55.24
64841;BME280;51307;52.162;7.560;2023-03-14T01:11:05;98382.38;;;12.34;54.57
64841;BME280;51307;52.162;7.560;2023-03-14T01:13:31;98377.91;;;12.28;54.70
64841;BME280;51307;52.162;7.560;2023-03-14T01:16:01;98374.63;;;12.14;55.21
64841;BME280;51307;52.162;7.560;2023-03-14T01:18:27;98369.66;;;11.87;55.73
64841;BME280;51307;52.162;7.560;2023-03-14T01:20:53;98364.47;;;12.04;55.55
64841;BME280;51307;52.162;7.560;2023-03-14T01:23:28;98357.91;;;12.00;55.52
64841;BME280;51307;52.162;7.560;2023-03-14T01:25:53;98359.50;;;12.20;55.10
64841;BME280;51307;52.162;7.560;2023-03-14T01:28:22;98366.59;;;12.14;55.14
64841;BME280;51307;52.162;7.560;2023-03-14T01:30:47;98371.72;;;12.16;55.27
64841;BME280;51307;52.162;7.560;2023-03-14T01:33:13;98374.09;;;11.93;55.48
64841;BME280;51307;52.162;7.560;2023-03-14T01:35:40;98374.63;;;11.84;55.77
64841;BME280;51307;52.162;7.560;2023-03-14T01:38:05;98371.72;;;12.16;55.09
64841;BME280;51307;52.162;7.560;2023-03-14T01:40:31;98376.19;;;11.91;55.56
64841;BME280;51307;52.162;7.560;2023-03-14T01:43:00;98376.94;;;12.10;55.20
64841;BME280;51307;52.162;7.560;2023-03-14T01:48:52;98383.97;;;12.23;54.61
64841;BME280;51307;52.162;7.560;2023-03-14T01:54:08;98377.09;;;12.16;55.07
64841;BME280;51307;52.162;7.560;2023-03-14T01:56:51;98371.78;;;11.97;55.77
64841;BME280;51307;52.162;7.560;2023-03-14T01:59:21;98368.78;;;12.05;55.67
64841;BME280;51307;52.162;7.560;2023-03-14T02:01:51;98380.56;;;12.04;55.99
64841;BME280;51307;52.162;7.560;2023-03-14T02:04:19;98371.38;;;11.82;56.73
64841;BME280;51307;52.162;7.560;2023-03-14T02:06:55;98369.44;;;11.89;56.64
64841;BME280;51307;52.162;7.560;2023-03-14T02:09:26;98363.78;;;11.78;57.09
64841;BME280;51307;52.162;7.560;2023-03-14T02:11:52;98364.91;;;12.01;56.71
64841;BME280;51307;52.162;7.560;2023-03-14T02:14:40;98368.97;;;11.61;57.77
64841;BME280;51307;52.162;7.560;2023-03-14T02:17:08;98368.28;;;11.66;57.82
64841;BME280;51307;52.162;7.560;2023-03-14T02:22:12;98367.69;;;11.64;58.21
64841;BME280;51307;52.162;7.560;2023-03-14T02:24:57;98364.59;;;11.79;57.83
64841;BME280;51307;52.162;7.560;2023-03-14T02:27:27;98368.28;;;11.66;58.21
64841;BME280;51307;52.162;7.560;2023-03-14T02:29:58;98364.09;;;11.70;57.99
64841;BME280;51307;52.162;7.560;2023-03-14T02:32:27;98369.09;;;11.67;58.09
64841;BME280;51307;52.162;7.560;2023-03-14T02:35:18;98367.63;;;11.52;58.25
64841;BME280;51307;52.162;7.560;2023-03-14T02:38:15;98366.38;;;11.55;58.32
64841;BME280;51307;52.162;7.560;2023-03-14T02:40:42;98371.53;;;11.38;58.61
64841;BME280;51307;52.162;7.560;2023-03-14T02:43:08;98373.38;;;11.56;57.88
64841;BME280;51307;52.162;7.560;2023-03-14T02:45:40;98373.81;;;11.53;57.98
64841;BME280;51307;52.162;7.560;2023-03-14T02:50:47;98374.19;;;11.56;57.55
64841;BME280;51307;52.162;7.560;2023-03-14T02:53:25;98372.34;;;11.38;58.11
64841;BME280;51307;52.162;7.560;2023-03-14T02:55:54;98366.91;;;11.45;57.73
64841;BME280;51307;52.162;7.560;2023-03-14T02:58:20;98363.72;;;11.36;57.64
64841;BME280;51307;52.162;7.560;2023-03-14T03:00:48;98358.16;;;11.19;58.13
64841;BME280;51307;52.162;7.560;2023-03-14T03:03:22;98362.69;;;11.37;57.68
64841;BME280;51307;52.162;7.560;2023-03-14T03:05:54;98365.13;;;11.39;57.53
64841;BME280;51307;52.162;7.560;2023-03-14T03:08:26;98362.94;;;11.48;57.15
64841;BME280;51307;52.162;7.560;2023-03-14T03:11:00;98370.72;;;11.37;57.20
64841;BME280;51307;52.162;7.560;2023-03-14T03:13:26;98376.13;;;11.49;56.88
64841;BME280;51307;52.162;7.560;2023-03-14T03:15:52;98362.06;;;11.35;57.01
64841;BME280;51307;52.162;7.560;2023-03-14T03:18:20;98378.69;;;11.25;57.05
64841;BME280;51307;52.162;7.560;2023-03-14T03:21:03;98368.34;;;11.10;57.46
64841;BME280;51307;52.162;7.560;2023-03-14T03:23:45;98360.09;;;11.31;56.90
64841;BME280;51307;52.162;7.560;2023-03-14T03:26:14;98363.03;;;11.41;56.79
64841;BME280;51307;52.162;7.560;2023-03-14T03:28:39;98362.69;;;11.19;57.42
64841;BME280;51307;52.162;7.560;2023-03-14T03:31:11;98364.75;;;11.17;57.04
64841;BME280;51307;52.162;7.560;2023-03-14T03:33:43;98361.34;;;11.09;56.86
64841;BME280;51307;52.162;7.560;2023-03-14T03:36:09;98364.59;;;11.30;56.79
64841;BME280;51307;52.162;7.560;2023-03-14T03:38:35;98365.06;;;11.27;56.72
64841;BME280;51307;52.162;7.560;2023-03-14T03:41:07;98364.09;;;11.21;56.99
64841;BME280;51307;52.162;7.560;2023-03-14T03:43:33;98365.88;;;11.27;56.77
64841;BME280;51307;52.162;7.560;2023-03-14T03:46:02;98361.97;;;11.12;57.40
64841;BME280;51307;52.162;7.560;2023-03-14T03:48:28;98357.03;;;11.08;57.80
64841;BME280;51307;52.162;7.560;2023-03-14T03:50:53;98363.56;;;11.13;57.65
64841;BME280;51307;52.162;7.560;2023-03-14T03:53:22;98358.75;;;11.03;57.79
64841;BME280;51307;52.162;7.560;2023-03-14T03:55:47;98359.47;;;11.10;57.45
64841;BME280;51307;52.162;7.560;2023-03-14T03:58:13;98351.91;;;11.07;57.44
64841;BME280;51307;52.162;7.560;2023-03-14T04:00:38;98349.53;;;10.99;57.57
64841;BME280;51307;52.162;7.560;2023-03-14T04:03:04;98343.28;;;10.86;57.58
64841;BME280;51307;52.162;7.560;2023-03-14T04:05:30;98341.56;;;10.73;57.89
64841;BME280;51307;52.162;7.560;2023-03-14T04:07:55;98344.25;;;10.92;57.42
64841;BME280;51307;52.162;7.560;2023-03-14T04:10:21;98351.38;;;10.80;57.54
64841;BME280;51307;52.162;7.560;2023-03-14T04:12:46;98357.44;;;10.68;57.72
64841;BME280;51307;52.162;7.560;2023-03-14T04:15:12;98358.66;;;10.91;57.43
64841;BME280;51307;52.162;7.560;2023-03-14T04:17:37;98362.81;;;10.68;57.59
64841;BME280;51307;52.162;7.560;2023-03-14T04:20:03;98363.41;;;10.70;57.67
64841;BME280;51307;52.162;7.560;2023-03-14T04:22:29;98357.22;;;10.51;58.03
64841;BME280;51307;52.162;7.560;2023-03-14T04:24:55;98348.41;;;10.69;57.75
64841;BME280;51307;52.162;7.560;2023-03-14T04:27:20;98348.16;;;10.71;57.85
64841;BME280;51307;52.162;7.560;2023-03-14T04:29:46;98345.09;;;10.49;58.32
64841;BME280;51307;52.162;7.560;2023-03-14T04:32:11;98363.81;;;10.49;58.35
64841;BME280;51307;52.162;7.560;2023-03-14T04:34:39;98344.63;;;10.77;57.79
64841;BME280;51307;52.162;7.560;2023-03-14T04:37:06;98361.84;;;10.63;58.15
64841;BME280;51307;52.162;7.560;2023-03-14T04:39:31;98356.31;;;10.57;58.29
64841;BME280;51307;52.162;7.560;2023-03-14T04:41:59;98345.09;;;10.49;58.14
64841;BME280;51307;52.162;7.560;2023-03-14T04:44:25;98344.50;;;10.90;57.40
64841;BME280;51307;52.162;7.560;2023-03-14T04:46:50;98340.72;;;10.98;57.04
64841;BME280;51307;52.162;7.560;2023-03-14T04:49:16;98322.63;;;10.93;57.11
64841;BME280;51307;52.162;7.560;2023-03-14T04:51:41;98323.22;;;10.77;57.36
64841;BME280;51307;52.162;7.560;2023-03-14T04:54:07;98334.44;;;10.67;57.41
64841;BME280;51307;52.162;7.560;2023-03-14T04:56:32;98328.50;;;10.65;57.65
64841;BME280;51307;52.162;7.560;2023-03-14T04:58:58;98320.31;;;10.79;57.47
64841;BME280;51307;52.162;7.560;2023-03-14T05:01:26;98320.31;;;10.79;57.37
64841;BME280;51307;52.162;7.560;2023-03-14T05:03:52;98318.69;;;10.59;57.69
64841;BME280;51307;52.162;7.560;2023-03-14T05:06:17;98314.53;;;10.82;57.10
64841;BME280;51307;52.162;7.560;2023-03-14T05:08:43;98312.91;;;10.81;57.28
64841;BME280;51307;52.162;7.560;2023-03-14T05:11:10;98313.66;;;10.88;57.26
64841;BME280;51307;52.162;7.560;2023-03-14T05:13:36;98302.56;;;10.84;57.25
64841;BME280;51307;52.162;7.560;2023-03-14T05:16:09;98302.13;;;10.69;57.64
64841;BME280;51307;52.162;7.560;2023-03-14T05:18:35;98303.16;;;10.68;57.47
64841;BME280;51307;52.162;7.560;2023-03-14T05:21:01;98293.16;;;10.63;57.60
64841;BME280;51307;52.162;7.560;2023-03-14T05:23:26;98294.91;;;10.69;57.38
64841;BME280;51307;52.162;7.560;2023-03-14T05:25:52;98293.34;;;10.62;57.59
64841;BME280;51307;52.162;7.560;2023-03-14T05:28:17;98291.19;;;10.52;57.88
64841;BME280;51307;52.162;7.560;2023-03-14T05:30:43;98287.44;;;10.78;57.23
64841;BME280;51307;52.162;7.560;2023-03-14T05:33:08;98298.09;;;10.59;57.37
64841;BME280;51307;52.162;7.560;2023-03-14T05:35:34;98289.22;;;10.66;57.20
64841;BME280;51307;52.162;7.560;2023-03-14T05:37:59;98286.81;;;10.76;57.00
64841;BME280;51307;52.162;7.560;2023-03-14T05:40:25;98286.81;;;10.76;56.87
64841;BME280;51307;52.162;7.560;2023-03-14T05:42:50;98292.38;;;10.56;57.63
64841;BME280;51307;52.162;7.560;2023-03-14T05:45:17;98293.84;;;10.52;57.28
64841;BME280;51307;52.162;7.560;2023-03-14T05:47:43;98286.22;;;10.55;57.53
64841;BME280;51307;52.162;7.560;2023-03-14T05:50:09;98285.19;;;10.75;57.08
64841;BME280;51307;52.162;7.560;2023-03-14T05:52:34;98290.31;;;10.76;56.97
64841;BME280;51307;52.162;7.560;2023-03-14T05:55:00;98297.94;;;10.54;57.57
64841;BME280;51307;52.162;7.560;2023-03-14T05:57:25;98292.78;;;10.78;57.31
64841;BME280;51307;52.162;7.560;2023-03-14T05:59:51;98288.91;;;10.74;57.27
64841;BME280;51307;52.162;7.560;2023-03-14T06:02:16;98291.06;;;10.65;57.31
64841;BME280;51307;52.162;7.560;2023-03-14T06:04:42;98296.78;;;10.69;57.40
64841;BME280;51307;52.162;7.560;2023-03-14T06:07:07;98291.41;;;10.50;57.78
64841;BME280;51307;52.162;7.560;2023-03-14T06:09:32;98287.63;;;10.58;57.77
64841;BME280;51307;52.162;7.560;2023-03-14T06:11:58;98284.34;;;10.56;57.97
64841;BME280;51307;52.162;7.560;2023-03-14T06:14:23;98297.44;;;10.64;57.69
64841;BME280;51307;52.162;7.560;2023-03-14T06:16:49;98291.03;;;10.47;58.14
64841;BME280;51307;52.162;7.560;2023-03-14T06:19:16;98296.53;;;10.26;58.73
64841;BME280;51307;52.162;7.560;2023-03-14T06:21:41;98289.53;;;10.51;58.22
64841;BME280;51307;52.162;7.560;2023-03-14T06:24:07;98295.06;;;10.56;57.80
64841;BME280;51307;52.162;7.560;2023-03-14T06:26:33;98298.47;;;10.45;58.18
64841;BME280;51307;52.162;7.560;2023-03-14T06:28:59;98292.63;;;10.73;57.75
64841;BME280;51307;52.162;7.560;2023-03-14T06:31:32;98293.00;;;10.58;57.81
64841;BME280;51307;52.162;7.560;2023-03-14T06:33:58;98290.09;;;10.34;58.51
64841;BME280;51307;52.162;7.560;2023-03-14T06:36:23;98295.44;;;10.59;58.20
64841;BME280;51307;52.162;7.560;2023-03-14T06:38:49;98291.06;;;10.65;57.93
64841;BME280;51307;52.162;7.560;2023-03-14T06:41:14;98285.78;;;10.77;57.90
64841;BME280;51307;52.162;7.560;2023-03-14T06:43:40;98296.13;;;10.55;58.10
64841;BME280;51307;52.162;7.560;2023-03-14T06:46:05;98300.72;;;10.66;58.34
64841;BME280;51307;52.162;7.560;2023-03-14T06:48:31;98297.66;;;10.63;58.23
64841;BME280;51307;52.162;7.560;2023-03-14T06:50:56;98299.84;;;10.72;58.64
64841;BME280;51307;52.162;7.560;2023-03-14T06:53:22;98304.03;;;10.62;59.20
64841;BME280;51307;52.162;7.560;2023-03-14T06:55:48;98303.97;;;10.68;59.23
64841;BME280;51307;52.162;7.560;2023-03-14T06:58:14;98304.88;;;10.62;59.68
64841;BME280;51307;52.162;7.560;2023-03-14T07:00:39;98310.81;;;10.46;60.37
64841;BME280;51307;52.162;7.560;2023-03-14T07:03:05;98319.56;;;10.27;61.40
64841;BME280;51307;52.162;7.560;2023-03-14T07:05:30;98326.25;;;10.12;61.78
64841;BME280;51307;52.162;7.560;2023-03-14T07:07:56;98316.72;;;10.48;61.26
64841;BME280;51307;52.162;7.560;2023-03-14T07:10:21;98311.06;;;10.37;61.42
64841;BME280;51307;52.162;7.560;2023-03-14T07:12:47;98321.31;;;10.40;61.91
64841;BME280;51307;52.162;7.560;2023-03-14T07:15:13;98322.16;;;10.34;61.85
64841;BME280;51307;52.162;7.560;2023-03-14T07:17:38;98313.88;;;10.42;61.70
64841;BME280;51307;52.162;7.560;2023-03-14T07:20:04;98320.44;;;10.21;62.59
64841;BME280;51307;52.162;7.560;2023-03-14T07:22:30;98319.06;;;9.87;64.40
64841;BME280;51307;52.162;7.560;2023-03-14T07:24:55;98326.81;;;9.95;64.67
64841;BME280;51307;52.162;7.560;2023-03-14T07:27:21;98321.25;;;10.22;64.12
64841;BME280;51307;52.162;7.560;2023-03-14T07:29:47;98326.69;;;10.08;64.42
64841;BME280;51307;52.162;7.560;2023-03-14T07:32:12;98331.50;;;10.25;64.17
64841;BME280;51307;52.162;7.560;2023-03-14T07:34:42;98323.88;;;10.29;64.21
64841;BME280;51307;52.162;7.560;2023-03-14T07:37:09;98332.00;;;10.15;64.88
64841;BME280;51307;52.162;7.560;2023-03-14T07:39:34;98322.34;;;10.39;63.95
64841;BME280;51307;52.162;7.560;2023-03-14T07:42:00;98327.78;;;10.26;63.97
64841;BME280;51307;52.162;7.560;2023-03-14T07:44:26;98328.19;;;10.55;63.48
64841;BME280;51307;52.162;7.560;2023-03-14T07:46:52;98329.97;;;10.36;63.92
64841;BME280;51307;52.162;7.560;2023-03-14T07:49:18;98331.78;;;10.42;63.55
64841;BME280;51307;52.162;7.560;2023-03-14T07:51:43;98343.78;;;10.33;63.25
64841;BME280;51307;52.162;7.560;2023-03-14T07:54:11;98338.34;;;10.46;63.10
64841;BME280;51307;52.162;7.560;2023-03-14T07:56:36;98336.69;;;10.45;63.07
64841;BME280;51307;52.162;7.560;2023-03-14T07:59:02;98339.63;;;10.62;62.71
64841;BME280;51307;52.162;7.560;2023-03-14T08:01:28;98330.31;;;10.46;62.84
64841;BME280;51307;52.162;7.560;2023-03-14T08:03:54;98333.69;;;10.60;62.41
64841;BME280;51307;52.162;7.560;2023-03-14T08:06:19;98333.53;;;10.73;62.32
64841;BME280;51307;52.162;7.560;2023-03-14T08:08:45;98330.38;;;10.83;61.84
64841;BME280;51307;52.162;7.560;2023-03-14T08:11:10;98339.66;;;10.81;62.05
64841;BME280;51307;52.162;7.560;2023-03-14T08:13:37;98352.41;;;10.79;61.93
64841;BME280;51307;52.162;7.560;2023-03-14T08:16:03;98324.19;;;11.01;61.61
64841;BME280;51307;52.162;7.560;2023-03-14T08:18:29;98338.41;;;10.83;62.48
64841;BME280;51307;52.162;7.560;2023-03-14T08:20:55;98340.81;;;10.41;63.53
64841;BME280;51307;52.162;7.560;2023-03-14T08:23:20;98336.16;;;10.80;63.58
64841;BME280;51307;52.162;7.560;2023-03-14T08:25:49;98344.38;;;10.60;64.15
64841;BME280;51307;52.162;7.560;2023-03-14T08:28:15;98343.94;;;10.63;64.46
64841;BME280;51307;52.162;7.560;2023-03-14T08:30:41;98346.63;;;10.63;64.87
64841;BME280;51307;52.162;7.560;2023-03-14T08:33:06;98336.97;;;10.62;64.55
64841;BME280;51307;52.162;7.560;2023-03-14T08:35:32;98354.25;;;10.34;65.38
64841;BME280;51307;52.162;7.560;2023-03-14T08:37:57;98354.31;;;10.53;66.07
64841;BME280;51307;52.162;7.560;2023-03-14T08:40:23;98365.81;;;10.28;66.54
64841;BME280;51307;52.162;7.560;2023-03-14T08:42:48;98350.94;;;10.39;66.90
64841;BME280;51307;52.162;7.560;2023-03-14T08:45:15;98362.03;;;10.36;67.30
64841;BME280;51307;52.162;7.560;2023-03-14T08:47:44;98356.50;;;10.37;67.36
64841;BME280;51307;52.162;7.560;2023-03-14T08:50:11;98359.53;;;10.66;66.57
64841;BME280;51307;52.162;7.560;2023-03-14T08:52:38;98373.63;;;9.98;68.52
64841;BME280;51307;52.162;7.560;2023-03-14T08:55:06;98367.97;;;10.70;66.33
64841;BME280;51307;52.162;7.560;2023-03-14T08:57:32;98373.72;;;10.41;67.54
64841;BME280;51307;52.162;7.560;2023-03-14T08:59:57;98365.22;;;10.26;67.84
64841;BME280;51307;52.162;7.560;2023-03-14T09:02:24;98379.19;;;10.28;68.20
64841;BME280;51307;52.162;7.560;2023-03-14T09:04:51;98381.13;;;10.39;67.83
64841;BME280;51307;52.162;7.560;2023-03-14T09:07:17;98384.94;;;10.25;67.22
64841;BME280;51307;52.162;7.560;2023-03-14T09:09:42;98387.94;;;10.10;68.17
64841;BME280;51307;52.162;7.560;2023-03-14T09:12:08;98389.44;;;9.99;67.43
64841;BME280;51307;52.162;7.560;2023-03-14T09:14:33;98383.31;;;10.24;66.61
64841;BME280;51307;52.162;7.560;2023-03-14T09:16:59;98396.28;;;9.88;67.32
64841;BME280;51307;52.162;7.560;2023-03-14T09:19:24;98415.16;;;9.55;68.14
64841;BME280;51307;52.162;7.560;2023-03-14T09:21:50;98424.28;;;9.34;69.64
64841;BME280;51307;52.162;7.560;2023-03-14T09:24:16;98473.91;;;9.41;63.37
64841;BME280;51307;52.162;7.560;2023-03-14T09:26:42;98484.00;;;9.33;62.79
64841;BME280;51307;52.162;7.560;2023-03-14T09:29:08;98491.66;;;8.96;63.12
64841;BME280;51307;52.162;7.560;2023-03-14T09:31:33;98484.44;;;9.23;61.98
64841;BME280;51307;52.162;7.560;2023-03-14T09:33:59;98501.47;;;9.22;62.23
64841;BME280;51307;52.162;7.560;2023-03-14T09:36:25;98509.91;;;9.05;63.05
64841;BME280;51307;52.162;7.560;2023-03-14T09:38:51;98528.09;;;8.48;65.08
64841;BME280;51307;52.162;7.560;2023-03-14T09:41:26;98510.69;;;8.52;65.04
64841;BME280;51307;52.162;7.560;2023-03-14T09:44:02;98525.72;;;8.87;63.75
64841;BME280;51307;52.162;7.560;2023-03-14T09:46:32;98534.28;;;8.82;64.91
64841;BME280;51307;52.162;7.560;2023-03-14T09:49:00;98536.97;;;8.96;64.54
64841;BME280;51307;52.162;7.560;2023-03-14T09:51:27;98559.34;;;9.08;63.33
64841;BME280;51307;52.162;7.560;2023-03-14T09:53:53;98576.69;;;8.44;63.06
64841;BME280;51307;52.162;7.560;2023-03-14T09:56:23;98589.25;;;8.76;61.29
64841;BME280;51307;52.162;7.560;2023-03-14T09:59:00;98660.09;;;8.02;60.24
64841;BME280;51307;52.162;7.560;2023-03-14T10:01:31;98621.13;;;7.95;60.26
64841;BME280;51307;52.162;7.560;2023-03-14T10:04:02;98642.16;;;7.54;60.36
64841;BME280;51307;52.162;7.560;2023-03-14T10:06:30;98679.91;;;7.15;61.53
64841;BME280;51307;52.162;7.560;2023-03-14T10:08:57;98683.50;;;7.50;61.04
64841;BME280;51307;52.162;7.560;2023-03-14T10:11:24;98693.69;;;7.03;61.61
64841;BME280;51307;52.162;7.560;2023-03-14T10:16:34;98707.78;;;7.19;61.82
64841;BME280;51307;52.162;7.560;2023-03-14T10:19:06;98738.63;;;7.35;60.50
64841;BME280;51307;52.162;7.560;2023-03-14T10:21:37;98742.81;;;7.22;58.63
64841;BME280;51307;52.162;7.560;2023-03-14T10:24:22;98762.13;;;6.80;59.73
64841;BME280;51307;52.162;7.560;2023-03-14T10:26:58;98776.59;;;6.92;57.95
64841;BME280;51307;52.162;7.560;2023-03-14T10:29:26;98785.22;;;6.94;57.81
64841;BME280;51307;52.162;7.560;2023-03-14T10:32:10;98800.25;;;6.72;58.30
64841;BME280;51307;52.162;7.560;2023-03-14T10:34:43;98812.72;;;6.86;58.92
64841;BME280;51307;52.162;7.560;2023-03-14T10:37:23;98825.84;;;6.73;58.08
64841;BME280;51307;52.162;7.560;2023-03-14T10:39:53;98840.84;;;6.66;58.28
64841;BME280;51307;52.162;7.560;2023-03-14T10:42:29;98867.63;;;6.79;57.81
64841;BME280;51307;52.162;7.560;2023-03-14T10:47:54;98912.31;;;6.46;57.39
64841;BME280;51307;52.162;7.560;2023-03-14T10:52:48;98926.47;;;6.76;57.57
64841;BME280;51307;52.162;7.560;2023-03-14T10:55:14;98938.28;;;6.73;57.38
64841;BME280;51307;52.162;7.560;2023-03-14T10:57:41;98946.75;;;6.39;57.56
64841;BME280;51307;52.162;7.560;2023-03-14T11:00:36;98940.63;;;6.91;57.08
64841;BME280;51307;52.162;7.560;2023-03-14T11:03:11;98962.91;;;6.52;57.37
64841;BME280;51307;52.162;7.560;2023-03-14T11:08:27;98973.34;;;6.92;56.43
64841;BME280;51307;52.162;7.560;2023-03-14T11:11:20;98984.63;;;6.94;56.61
64841;BME280;51307;52.162;7.560;2023-03-14T11:13:55;98994.13;;;6.50;57.01
64841;BME280;51307;52.162;7.560;2023-03-14T11:16:51;99003.28;;;6.86;56.38
64841;BME280;51307;52.162;7.560;2023-03-14T11:22:58;99022.88;;;6.70;57.97
64841;BME280;51307;52.162;7.560;2023-03-14T11:30:50;99048.03;;;7.05;57.89
64841;BME280;51307;52.162;7.560;2023-03-14T11:33:22;99065.84;;;7.20;56.89
64841;BME280;51307;52.162;7.560;2023-03-14T11:36:12;99068.38;;;6.90;57.21
64841;BME280;51307;52.162;7.560;2023-03-14T11:38:48;99075.13;;;7.24;57.23
64841;BME280;51307;52.162;7.560;2023-03-14T11:43:56;99071.09;;;7.28;55.85
64841;BME280;51307;52.162;7.560;2023-03-14T11:46:33;99077.63;;;7.40;54.87
64841;BME280;51307;52.162;7.560;2023-03-14T11:55:32;99113.97;;;7.10;56.25
64841;BME280;51307;52.162;7.560;2023-03-14T11:58:24;99123.41;;;7.13;55.39
64841;BME280;51307;52.162;7.560;2023-03-14T12:00:54;99124.06;;;7.53;54.78
64841;BME280;51307;52.162;7.560;2023-03-14T12:03:40;99128.16;;;7.40;55.09
64841;BME280;51307;52.162;7.560;2023-03-14T12:06:34;99158.06;;;7.04;56.48
64841;BME280;51307;52.162;7.560;2023-03-14T12:09:06;99163.69;;;7.48;54.92
64841;BME280;51307;52.162;7.560;2023-03-14T12:11:49;99160.03;;;7.49;55.12
64841;BME280;51307;52.162;7.560;2023-03-14T12:14:24;99155.09;;;7.61;54.74
64841;BME280;51307;52.162;7.560;2023-03-14T12:19:37;99178.38;;;7.82;54.28
64841;BME280;51307;52.162;7.560;2023-03-14T12:24:45;99202.88;;;7.92;54.36
64841;BME280;51307;52.162;7.560;2023-03-14T12:35:43;99238.41;;;7.84;53.16
64841;BME280;51307;52.162;7.560;2023-03-14T12:43:34;99276.00;;;7.43;54.57
64841;BME280;51307;52.162;7.560;2023-03-14T12:46:26;99270.50;;;7.68;54.91
64841;BME280;51307;52.162;7.560;2023-03-14T12:49:16;99278.47;;;7.68;55.38
64841;BME280;51307;52.162;7.560;2023-03-14T12:51:42;99292.22;;;7.56;55.04
64841;BME280;51307;52.162;7.560;2023-03-14T13:04:43;99328.59;;;7.64;49.59
64841;BME280;51307;52.162;7.560;2023-03-14T13:07:33;99348.94;;;7.26;49.02
64841;BME280;51307;52.162;7.560;2023-03-14T13:10:22;99359.38;;;7.58;48.88
64841;BME280;51307;52.162;7.560;2023-03-14T13:12:56;99368.84;;;6.90;47.06
64841;BME280;51307;52.162;7.560;2023-03-14T13:15:41;99374.66;;;7.41;45.05
64841;BME280;51307;52.162;7.560;2023-03-14T13:18:15;99371.41;;;7.23;44.20
64841;BME280;51307;52.162;7.560;2023-03-14T13:21:02;99364.97;;;7.17;43.68
64841;BME280;51307;52.162;7.560;2023-03-14T13:23:31;99395.47;;;7.61;43.67
64841;BME280;51307;52.162;7.560;2023-03-14T13:25:59;99389.97;;;7.71;43.75
64841;BME280;51307;52.162;7.560;2023-03-14T13:28:26;99426.53;;;7.46;43.99
64841;BME280;51307;52.162;7.560;2023-03-14T13:30:58;99420.47;;;7.52;44.19
64841;BME280;51307;52.162;7.560;2023-03-14T13:33:24;99431.22;;;7.35;43.79
64841;BME280;51307;52.162;7.560;2023-03-14T13:38:26;99441.22;;;7.33;41.90
64841;BME280;51307;52.162;7.560;2023-03-14T13:40:55;99445.75;;;7.56;40.25
64841;BME280;51307;52.162;7.560;2023-03-14T13:43:36;99454.66;;;7.32;39.95
64841;BME280;51307;52.162;7.560;2023-03-14T13:46:14;99473.53;;;7.62;38.23
64841;BME280;51307;52.162;7.560;2023-03-14T13:48:48;99479.97;;;7.19;38.53
64841;BME280;51307;52.162;7.560;2023-03-14T13:51:18;99465.09;;;7.50;38.87
64841;BME280;51307;52.162;7.560;2023-03-14T13:53:51;99469.56;;;7.57;39.32
64841;BME280;51307;52.162;7.560;2023-03-14T13:56:18;99490.25;;;7.39;39.57
64841;BME280;51307;52.162;7.560;2023-03-14T13:58:44;99490.38;;;7.85;39.46
64841;BME280;51307;52.162;7.560;2023-03-14T14:03:41;99505.94;;;7.73;39.41
64841;BME280;51307;52.162;7.560;2023-03-14T14:06:38;99514.94;;;7.64;39.96
64841;BME280;51307;52.162;7.560;2023-03-14T14:09:16;99518.03;;;7.76;39.56
64841;BME280;51307;52.162;7.560;2023-03-14T14:11:47;99522.69;;;7.82;38.84
64841;BME280;51307;52.162;7.560;2023-03-14T14:14:29;99532.28;;;7.52;38.10
64841;BME280;51307;52.162;7.560;2023-03-14T14:16:59;99531.97;;;7.86;38.39
64841;BME280;51307;52.162;7.560;2023-03-14T14:19:28;99539.56;;;7.66;37.29
64841;BME280;51307;52.162;7.560;2023-03-14T14:21:56;99553.75;;;7.98;36.62
64841;BME280;51307;52.162;7.560;2023-03-14T14:24:28;99548.69;;;7.72;36.80
64841;BME280;51307;52.162;7.560;2023-03-14T14:27:00;99557.53;;;7.64;36.04
64841;BME280;51307;52.162;7.560;2023-03-14T14:29:29;99565.53;;;8.04;35.55